Terminal Aerodrome Forecast
Issued by NWS Northern Indiana

Home | Current Version | Previous Version | Text Only | Print | Product List | Glossary Off
Versions: 1 2 3 4 5 6 7 8 9 10 11 12 13 14 15

000
FTUS43 KIWX 231300 AAA
TAFFWA
TAF AMD
KFWA 231341Z 2314/2412 31008KT P6SM FEW008 OVC013
      TEMPO 2314/2315 OVC008
     FM231500 36015KT P6SM BKN015
     FM231800 01010KT P6SM BKN035
     FM240600 02005KT P6SM SCT045=

USA.gov is the U.S. government's official web portal to all federal, state and local government web resources and services.